Eleonora — CFA2200 — position and weather

sailwx.info

Track history (hours):
 
Tides and Currents Weather Stations Pressure Air Temp Water Temp Dewpoint Dewpoint Depression Visibility Wind Speed Wind Dir Waves Ship Positions

Eleonora

Last reported at 2018-Feb-04 21:48 UTC. Time now 2018-Feb-21 11:43 UTC.
Position N 17°00' W 061°46'.
Warning: this ship's position is 16 days out of date.

Length 15 m; draft 2 m.

Type: Sailing vessel. MMSI: 316032807.

Date/timePositionNaut miles runAvg speedWind from/ knotsBaromVisibWave heightAir tempDewpointWater temp
2018-Feb-04 21:48N 17°00' W 061°46'0 0.0
2018-Feb-04 21:30N 17°00' W 061°46'1 2.1
2018-Feb-04 21:00N 16°60' W 061°47'3 3.5
2018-Feb-04 20:00N 16°60' W 061°50'2 3.1
2018-Feb-04 19:28N 17°01' W 061°52'1 2.6
2018-Feb-04 18:59N 17°01' W 061°53'2 4.9
2018-Feb-04 18:29N 17°03' W 061°54'1 0.4
2018-Feb-04 14:21N 17°05' W 061°54'  
2018-Jan-30 19:52N 17°05' W 061°54'1 2.6
2018-Jan-30 19:30N 17°06' W 061°55'5 3.7
2018-Jan-30 18:05N 17°01' W 061°53'1 4.1
2018-Jan-30 17:45N 17°01' W 061°51'1 4.8
2018-Jan-30 17:28N 16°60' W 061°50'2 4.6
2018-Jan-30 17:00N 16°60' W 061°48'2 4.2
2018-Jan-30 16:30N 17°00' W 061°46'  
Track history (hours):
 
Tides and Currents Weather Stations Pressure Air Temp Water Temp Dewpoint Dewpoint Depression Visibility Wind Speed Wind Dir Waves Ship Positions

Eleonora

Last reported at 2018-Feb-04 21:48 UTC. Time now 2018-Feb-21 11:43 UTC.
Position N 17°00' W 061°46'.
Warning: this ship's position is 16 days out of date.

Length 15 m; draft 2 m.

Type: Sailing vessel. MMSI: 316032807.

Date/timePositionNaut miles runAvg speedWind from/ knotsBaromVisibWave heightAir tempDewpointWater temp
2018-Feb-04 21:48N 17°00' W 061°46'0 0.0
2018-Feb-04 21:30N 17°00' W 061°46'1 2.1
2018-Feb-04 21:00N 16°60' W 061°47'3 3.5
2018-Feb-04 20:00N 16°60' W 061°50'2 3.1
2018-Feb-04 19:28N 17°01' W 061°52'1 2.6
2018-Feb-04 18:59N 17°01' W 061°53'2 4.9
2018-Feb-04 18:29N 17°03' W 061°54'1 0.4
2018-Feb-04 14:21N 17°05' W 061°54'  
2018-Jan-30 19:52N 17°05' W 061°54'1 2.6
2018-Jan-30 19:30N 17°06' W 061°55'5 3.7
2018-Jan-30 18:05N 17°01' W 061°53'1 4.1
2018-Jan-30 17:45N 17°01' W 061°51'1 4.8
2018-Jan-30 17:28N 16°60' W 061°50'2 4.6
2018-Jan-30 17:00N 16°60' W 061°48'2 4.2
2018-Jan-30 16:30N 17°00' W 061°46'  

Dump ship's entire track history